createdAt,value
2023-01-09T00:00:53.483Z,2.13
2023-01-09T00:03:20.729Z,2.60
2023-01-09T00:05:48.062Z,3.05
2023-01-09T00:08:15.495Z,2.28
2023-01-09T00:10:42.832Z,2.60
2023-01-09T00:13:11.970Z,2.15
2023-01-09T00:15:39.652Z,4.40
2023-01-09T00:18:06.961Z,2.72
2023-01-09T00:20:34.358Z,4.68
2023-01-09T00:23:01.638Z,3.15
2023-01-09T00:25:28.943Z,2.75
2023-01-09T00:27:56.189Z,3.80
2023-01-09T00:30:23.594Z,3.70
2023-01-09T00:32:50.948Z,4.63
2023-01-09T00:35:19.107Z,3.35
2023-01-09T00:37:46.408Z,5.18
2023-01-09T00:40:15.049Z,8.10
2023-01-09T00:42:43.067Z,4.00
2023-01-09T00:45:20.079Z,4.35
2023-01-09T00:47:49.110Z,7.38
2023-01-09T00:50:18.078Z,3.40
2023-01-09T00:52:46.138Z,4.60
2023-01-09T00:55:14.635Z,5.07
2023-01-09T00:57:42.059Z,6.13
2023-01-09T01:00:09.894Z,4.95
2023-01-09T01:02:37.175Z,5.70
2023-01-09T01:05:23.124Z,4.05
2023-01-09T01:07:50.464Z,2.72
2023-01-09T01:10:22.095Z,5.57
2023-01-09T01:12:50.124Z,4.30
2023-01-09T01:15:17.998Z,3.10
2023-01-09T01:17:45.598Z,6.43
2023-01-09T01:20:14.528Z,3.80
2023-01-09T01:22:42.544Z,7.07
2023-01-09T01:25:10.545Z,6.50
2023-01-09T01:27:37.826Z,5.18
2023-01-09T01:30:06.193Z,4.25
2023-01-09T01:32:33.432Z,5.82
2023-01-09T01:35:00.731Z,4.88
2023-01-09T01:37:28.115Z,3.55
2023-01-09T01:39:55.640Z,4.63
2023-01-09T01:42:22.883Z,4.88
2023-01-09T01:45:08.749Z,3.33
2023-01-09T01:47:39.180Z,7.55
2023-01-09T01:50:10.024Z,4.30
2023-01-09T01:52:38.379Z,4.50
2023-01-09T01:55:07.978Z,4.10
2023-01-09T01:57:36.311Z,4.22
2023-01-09T02:00:03.874Z,6.22
2023-01-09T02:02:32.724Z,5.75
2023-01-09T02:05:00.906Z,3.42
2023-01-09T02:07:28.348Z,4.72
2023-01-09T02:09:55.670Z,2.75
2023-01-09T02:12:26.959Z,5.93
2023-01-09T02:15:06.455Z,4.68
2023-01-09T02:17:48.354Z,4.47
2023-01-09T02:20:34.250Z,5.68
2023-01-09T02:23:10.457Z,4.70
2023-01-09T02:25:40.873Z,5.82
2023-01-09T02:28:17.293Z,4.25
2023-01-09T02:30:47.607Z,6.68
2023-01-09T02:33:27.044Z,4.50
2023-01-09T02:36:02.743Z,5.57
2023-01-09T02:38:39.963Z,12.27
2023-01-09T02:41:21.339Z,6.55
2023-01-09T02:43:48.630Z,5.93
2023-01-09T02:46:20.505Z,4.53
2023-01-09T02:48:49.199Z,8.80
2023-01-09T02:51:25.856Z,4.78
2023-01-09T02:54:14.251Z,5.20
2023-01-09T02:56:44.614Z,5.78
2023-01-09T02:59:11.853Z,4.85
2023-01-09T03:01:52.315Z,4.78
2023-01-09T03:04:22.715Z,4.75
2023-01-09T03:07:02.131Z,5.13
2023-01-09T03:09:32.583Z,5.05
2023-01-09T03:12:03.516Z,5.93
2023-01-09T03:14:32.507Z,4.63
2023-01-09T03:17:02.604Z,5.30
2023-01-09T03:19:31.749Z,5.38
2023-01-09T03:22:00.550Z,4.15
2023-01-09T03:24:27.827Z,4.22
2023-01-09T03:26:55.434Z,5.10
2023-01-09T03:29:22.716Z,5.10
2023-01-09T03:31:50.119Z,6.13
2023-01-09T03:34:17.427Z,4.10
2023-01-09T03:36:44.931Z,4.00
2023-01-09T03:39:12.246Z,4.53
2023-01-09T03:41:39.534Z,5.40
2023-01-09T03:44:06.777Z,8.52
2023-01-09T03:46:34.163Z,5.78
2023-01-09T03:49:02.168Z,6.00
2023-01-09T03:51:29.378Z,4.10
2023-01-09T03:53:56.637Z,5.05
2023-01-09T03:56:25.555Z,4.65
2023-01-09T03:58:53.677Z,5.30
2023-01-09T04:01:21.059Z,4.90
2023-01-09T04:03:48.535Z,5.25
2023-01-09T04:06:15.852Z,8.93
2023-01-09T04:08:43.239Z,2.95
2023-01-09T04:11:10.542Z,5.20
2023-01-09T04:13:37.824Z,5.40
2023-01-09T04:16:05.469Z,4.03
2023-01-09T04:18:32.754Z,4.75
2023-01-09T04:20:59.985Z,5.65
2023-01-09T04:23:27.295Z,6.63
2023-01-09T04:25:54.590Z,3.58
2023-01-09T04:28:21.851Z,6.55
2023-01-09T04:30:49.112Z,5.25
2023-01-09T04:33:16.372Z,4.93
2023-01-09T04:35:43.629Z,3.40
2023-01-09T04:38:10.914Z,5.25
2023-01-09T04:40:38.227Z,7.90
2023-01-09T04:43:05.589Z,2.67
2023-01-09T04:45:32.966Z,3.83
2023-01-09T04:48:00.303Z,3.63
2023-01-09T04:50:27.559Z,5.90
2023-01-09T04:52:54.838Z,5.00
2023-01-09T04:55:22.180Z,5.22
2023-01-09T04:57:49.423Z,4.93
2023-01-09T05:00:16.980Z,5.80
2023-01-09T05:02:44.309Z,3.25
2023-01-09T05:05:12.221Z,4.35
2023-01-09T05:07:39.663Z,5.78
2023-01-09T05:10:07.571Z,2.40
2023-01-09T05:12:36.323Z,3.90
2023-01-09T05:15:07.478Z,4.28
2023-01-09T05:17:34.763Z,6.57
2023-01-09T05:20:02.053Z,3.15
2023-01-09T05:22:29.402Z,5.07
2023-01-09T05:24:57.542Z,6.18
2023-01-09T05:27:25.371Z,4.07
2023-01-09T05:29:52.659Z,3.78
2023-01-09T05:32:19.907Z,4.93
2023-01-09T05:34:47.156Z,5.32
2023-01-09T05:37:14.423Z,7.50
2023-01-09T05:39:41.769Z,3.38
2023-01-09T05:42:09.103Z,5.97
2023-01-09T05:44:36.362Z,4.15
2023-01-09T05:47:03.665Z,4.13
2023-01-09T05:49:30.868Z,2.67
2023-01-09T05:51:58.300Z,7.43
2023-01-09T05:54:25.667Z,4.93
2023-01-09T05:56:52.919Z,4.47
2023-01-09T05:59:20.526Z,5.55
2023-01-09T06:01:47.746Z,7.43
2023-01-09T06:04:15.135Z,3.80
2023-01-09T06:06:42.424Z,6.97
2023-01-09T06:09:09.834Z,7.78
2023-01-09T06:11:38.447Z,7.28
2023-01-09T06:14:06.419Z,3.95
2023-01-09T06:16:33.847Z,5.70
2023-01-09T06:19:01.079Z,6.72
2023-01-09T06:21:29.518Z,7.55
2023-01-09T06:23:56.844Z,7.10
2023-01-09T06:26:24.638Z,5.80
2023-01-09T06:28:52.047Z,3.72
2023-01-09T06:31:19.464Z,5.28
2023-01-09T06:33:46.877Z,6.55
2023-01-09T06:36:14.394Z,5.80
2023-01-09T06:38:41.944Z,14.02
2023-01-09T06:41:09.222Z,20.20
2023-01-09T06:43:36.704Z,5.75
2023-01-09T06:46:05.797Z,4.35
2023-01-09T06:48:33.542Z,5.18
2023-01-09T06:51:00.826Z,4.60
2023-01-09T06:53:28.408Z,5.80
2023-01-09T06:55:55.807Z,3.05
2023-01-09T06:58:23.075Z,4.38
2023-01-09T07:00:50.441Z,3.28
2023-01-09T07:03:19.865Z,8.48
2023-01-09T07:05:47.617Z,12.23
2023-01-09T07:08:15.084Z,9.60
2023-01-09T07:10:45.296Z,6.65
2023-01-09T07:13:12.639Z,4.97
2023-01-09T07:15:40.102Z,6.45
2023-01-09T07:18:07.370Z,4.57
2023-01-09T07:20:34.663Z,5.10
2023-01-09T07:23:01.920Z,6.60
2023-01-09T07:25:29.219Z,7.07
2023-01-09T07:27:56.432Z,6.30
2023-01-09T07:30:23.704Z,5.55
2023-01-09T07:32:50.981Z,3.25
2023-01-09T07:35:18.257Z,6.45
2023-01-09T07:37:47.464Z,5.32
2023-01-09T07:40:14.789Z,5.75
2023-01-09T07:42:42.031Z,5.30
2023-01-09T07:45:09.531Z,5.40
2023-01-09T07:47:36.819Z,4.10
2023-01-09T07:50:04.136Z,4.80
2023-01-09T07:52:31.415Z,5.78
2023-01-09T07:54:58.662Z,3.17
2023-01-09T07:57:25.994Z,4.47
2023-01-09T07:59:53.241Z,4.65
2023-01-09T08:02:20.593Z,2.00
2023-01-09T08:04:47.867Z,2.22
2023-01-09T08:07:15.193Z,2.50
2023-01-09T08:09:42.493Z,1.98
2023-01-09T08:12:09.734Z,6.35
2023-01-09T08:14:37.177Z,3.63
2023-01-09T08:17:04.486Z,2.13
2023-01-09T08:19:31.739Z,2.78
2023-01-09T08:21:58.994Z,7.82
2023-01-09T08:24:26.328Z,4.45
2023-01-09T08:26:53.651Z,1.95
2023-01-09T08:29:21.159Z,1.77
2023-01-09T08:31:48.460Z,3.63
2023-01-09T08:34:15.793Z,7.03
2023-01-09T08:36:43.031Z,3.35
2023-01-09T08:39:10.625Z,2.80
2023-01-09T08:41:56.523Z,2.00
2023-01-09T08:44:42.354Z,3.55
2023-01-09T08:47:09.907Z,3.28
2023-01-09T08:49:38.474Z,3.45
2023-01-09T08:52:06.654Z,4.03
2023-01-09T08:54:36.785Z,5.32
2023-01-09T08:57:04.065Z,4.50
2023-01-09T08:59:31.448Z,5.65
2023-01-09T09:01:58.885Z,3.30
2023-01-09T09:04:26.314Z,4.43
2023-01-09T09:06:53.633Z,4.05
2023-01-09T09:09:20.921Z,3.80
2023-01-09T09:11:48.213Z,5.75
2023-01-09T09:14:34.339Z,3.35
2023-01-09T09:17:01.598Z,3.22
2023-01-09T09:19:28.911Z,2.38
2023-01-09T09:21:56.269Z,6.40
2023-01-09T09:24:23.568Z,5.50
2023-01-09T09:26:50.813Z,7.13
2023-01-09T09:29:18.090Z,5.10
2023-01-09T09:31:45.380Z,5.47
2023-01-09T09:34:13.335Z,8.75
2023-01-09T09:36:40.671Z,6.13
2023-01-09T09:39:08.664Z,6.47
2023-01-09T09:42:14.629Z,9.27
2023-01-09T09:44:54.545Z,11.43
2023-01-09T09:47:33.916Z,10.00
2023-01-09T09:50:10.301Z,10.15
2023-01-09T09:52:44.702Z,10.02
2023-01-09T09:55:17.299Z,12.00
2023-01-09T09:57:44.729Z,14.35
2023-01-09T10:00:16.772Z,9.60
2023-01-09T10:02:47.307Z,9.77
2023-01-09T10:05:21.845Z,7.82
2023-01-09T10:07:51.054Z,5.15
2023-01-09T10:10:23.393Z,5.03
2023-01-09T10:13:20.451Z,12.93
2023-01-09T10:15:54.577Z,5.95
2023-01-09T10:18:21.830Z,3.97
2023-01-09T10:21:12.970Z,8.05
2023-01-09T10:23:43.211Z,6.70
2023-01-09T10:26:26.756Z,6.22
2023-01-09T10:29:12.563Z,4.32
2023-01-09T10:31:42.947Z,11.05
2023-01-09T10:34:10.290Z,5.70
2023-01-09T10:36:49.756Z,5.95
2023-01-09T10:39:23.793Z,4.80
2023-01-09T10:41:53.823Z,16.48
2023-01-09T10:44:24.229Z,3.83
2023-01-09T10:46:55.512Z,5.43
2023-01-09T10:49:23.855Z,7.03
2023-01-09T10:51:52.278Z,5.13
2023-01-09T10:54:22.112Z,6.47
2023-01-09T10:56:57.699Z,4.63
2023-01-09T10:59:25.804Z,4.82
2023-01-09T11:01:54.557Z,7.95
2023-01-09T11:04:26.755Z,7.60
2023-01-09T11:06:57.983Z,6.07
2023-01-09T11:09:25.314Z,7.13
2023-01-09T11:11:52.881Z,9.50
2023-01-09T11:14:28.343Z,5.93
2023-01-09T11:16:56.625Z,8.63
2023-01-09T11:19:24.772Z,9.35
2023-01-09T11:22:06.268Z,8.80
2023-01-09T11:24:33.777Z,8.05
2023-01-09T11:27:13.414Z,7.82
2023-01-09T11:29:41.334Z,6.20
2023-01-09T11:32:22.429Z,6.65
2023-01-09T11:34:49.783Z,4.40
2023-01-09T11:37:23.613Z,7.85
2023-01-09T11:39:51.327Z,5.18
2023-01-09T11:42:42.994Z,11.50
2023-01-09T11:45:17.698Z,8.18
2023-01-09T11:47:45.150Z,10.45
2023-01-09T11:50:22.910Z,11.85
2023-01-09T11:53:09.051Z,7.90
2023-01-09T11:55:42.376Z,10.30
2023-01-09T11:58:17.932Z,12.63
2023-01-09T12:00:51.893Z,8.00
2023-01-09T12:03:40.469Z,7.53
2023-01-09T12:06:37.194Z,10.85
2023-01-09T12:09:06.602Z,12.32
2023-01-09T12:11:52.833Z,6.30
2023-01-09T12:14:22.862Z,9.90
2023-01-09T12:16:56.274Z,9.75
2023-01-09T12:19:45.978Z,12.93
2023-01-09T12:22:22.501Z,8.98
2023-01-09T12:25:06.249Z,7.10
2023-01-09T12:27:53.970Z,7.97
2023-01-09T12:30:29.357Z,7.78
2023-01-09T12:33:08.896Z,6.65
2023-01-09T12:35:46.059Z,7.57
2023-01-09T12:38:23.033Z,8.20
2023-01-09T12:40:59.778Z,7.75
2023-01-09T12:43:36.239Z,8.63
2023-01-09T12:46:20.628Z,6.68
2023-01-09T12:48:47.932Z,7.55
2023-01-09T12:51:34.385Z,10.30
2023-01-09T12:54:11.020Z,7.10
2023-01-09T12:56:44.383Z,8.43
2023-01-09T12:59:22.562Z,4.03
2023-01-09T13:01:50.559Z,12.02
2023-01-09T13:04:24.116Z,7.63
2023-01-09T13:06:53.677Z,11.07
2023-01-09T13:09:23.928Z,7.63
2023-01-09T13:12:05.363Z,10.07
2023-01-09T13:14:52.104Z,11.20
2023-01-09T13:17:25.728Z,10.87
2023-01-09T13:19:54.131Z,9.75
2023-01-09T13:22:22.850Z,10.77
2023-01-09T13:24:50.100Z,7.30
2023-01-09T13:27:19.824Z,10.77
2023-01-09T13:30:01.657Z,10.70
2023-01-09T13:32:39.941Z,8.38
2023-01-09T13:35:13.454Z,13.45
2023-01-09T13:37:41.393Z,8.45
2023-01-09T13:40:26.898Z,7.78
2023-01-09T13:42:56.922Z,7.40
2023-01-09T13:45:25.928Z,9.18
2023-01-09T13:48:14.117Z,6.35
2023-01-09T13:50:42.156Z,8.05
2023-01-09T13:53:18.420Z,8.75
2023-01-09T13:55:58.489Z,11.67
2023-01-09T13:58:35.280Z,8.60
2023-01-09T14:01:04.690Z,9.23
2023-01-09T14:03:37.293Z,9.30
2023-01-09T14:06:12.741Z,10.05
2023-01-09T14:08:41.967Z,10.30
2023-01-09T14:11:09.848Z,8.10
2023-01-09T14:13:41.856Z,8.20
2023-01-09T14:16:15.930Z,7.63
2023-01-09T14:18:51.448Z,9.10
2023-01-09T14:21:19.425Z,9.97
2023-01-09T14:24:06.903Z,8.40
2023-01-09T14:26:45.651Z,12.35
2023-01-09T14:29:31.532Z,7.53
2023-01-09T14:32:17.724Z,7.75
2023-01-09T14:34:46.049Z,8.17
2023-01-09T14:37:14.175Z,7.05
2023-01-09T14:39:44.939Z,9.02
2023-01-09T14:42:15.944Z,11.77
2023-01-09T14:45:06.910Z,10.70
2023-01-09T14:47:37.373Z,10.53
2023-01-09T14:50:14.513Z,6.63
2023-01-09T14:52:48.932Z,6.75
2023-01-09T14:55:20.884Z,7.45
2023-01-09T14:57:52.190Z,8.98
2023-01-09T15:00:19.623Z,8.40
2023-01-09T15:02:47.986Z,8.57
2023-01-09T15:05:17.595Z,11.80
2023-01-09T15:07:49.754Z,9.50
2023-01-09T15:10:21.885Z,6.50
2023-01-09T15:12:50.961Z,9.68
2023-01-09T15:15:19.298Z,7.93
2023-01-09T15:17:50.000Z,13.55
2023-01-09T15:20:19.455Z,11.40
2023-01-09T15:22:52.818Z,11.57
2023-01-09T15:25:33.843Z,11.18
2023-01-09T15:28:28.302Z,6.50
2023-01-09T15:31:06.496Z,13.00
2023-01-09T15:33:34.551Z,10.13
2023-01-09T15:36:03.671Z,11.35
2023-01-09T15:38:33.407Z,12.07
2023-01-09T15:41:36.014Z,9.40
2023-01-09T15:44:04.672Z,9.27
2023-01-09T15:46:32.074Z,9.90
2023-01-09T15:48:59.580Z,9.27
2023-01-09T15:51:27.261Z,9.43
2023-01-09T15:53:57.599Z,10.68
2023-01-09T15:56:30.597Z,14.10
2023-01-09T15:58:59.080Z,14.65
2023-01-09T16:01:29.989Z,16.75
2023-01-09T16:03:59.237Z,13.18
2023-01-09T16:06:30.338Z,15.70
2023-01-09T16:08:58.962Z,12.70
2023-01-09T16:11:30.928Z,14.02
2023-01-09T16:14:00.041Z,13.80
2023-01-09T16:16:29.650Z,17.40
2023-01-09T16:18:57.428Z,11.73
2023-01-09T16:21:30.842Z,10.73
2023-01-09T16:24:00.817Z,8.02
2023-01-09T16:26:29.657Z,8.32
2023-01-09T16:28:56.927Z,8.32
2023-01-09T16:31:31.152Z,7.57
2023-01-09T16:34:06.414Z,9.50
2023-01-09T16:36:37.335Z,9.73
2023-01-09T16:39:05.177Z,13.82
2023-01-09T16:41:50.947Z,10.43
2023-01-09T16:44:19.362Z,12.93
2023-01-09T16:46:47.128Z,9.18
2023-01-09T16:49:24.822Z,5.65
2023-01-09T16:51:52.343Z,10.85
2023-01-09T16:54:20.081Z,8.35
2023-01-09T16:56:49.240Z,10.98
2023-01-09T16:59:24.638Z,8.20
2023-01-09T17:01:52.954Z,5.05
2023-01-09T17:04:20.787Z,8.15
2023-01-09T17:06:51.330Z,11.52
2023-01-09T17:09:19.837Z,7.85
2023-01-09T17:11:47.182Z,8.15
2023-01-09T17:14:15.029Z,6.88
2023-01-09T17:16:45.902Z,10.27
2023-01-09T17:19:16.662Z,8.02
2023-01-09T17:21:43.956Z,11.95
2023-01-09T17:24:29.710Z,6.32
2023-01-09T17:27:15.884Z,8.85
2023-01-09T17:29:44.337Z,7.07
2023-01-09T17:32:18.661Z,5.50
2023-01-09T17:34:46.016Z,3.58
2023-01-09T17:37:17.454Z,6.55
2023-01-09T17:39:45.231Z,6.18
2023-01-09T17:42:12.851Z,5.32
2023-01-09T17:44:40.145Z,3.08
2023-01-09T17:47:07.486Z,5.30
2023-01-09T17:49:34.829Z,6.18
2023-01-09T17:52:02.154Z,4.15
2023-01-09T17:54:29.474Z,6.68
2023-01-09T17:56:56.968Z,3.83
2023-01-09T17:59:25.461Z,6.43
2023-01-09T18:01:54.185Z,4.93
2023-01-09T18:04:21.534Z,6.03
2023-01-09T18:06:49.566Z,7.47
2023-01-09T18:09:17.478Z,5.70
2023-01-09T18:11:45.341Z,8.18
2023-01-09T18:14:13.818Z,6.63
2023-01-09T18:16:41.408Z,4.90
2023-01-09T18:19:08.749Z,6.00
2023-01-09T18:21:36.007Z,10.23
2023-01-09T18:24:03.350Z,13.18
2023-01-09T18:26:30.672Z,6.65
2023-01-09T18:29:01.362Z,11.25
2023-01-09T18:31:30.408Z,11.95
2023-01-09T18:34:01.957Z,6.32
2023-01-09T18:36:29.900Z,11.13
2023-01-09T18:38:58.362Z,9.00
2023-01-09T18:41:26.209Z,9.80
2023-01-09T18:43:54.942Z,9.57
2023-01-09T18:46:25.818Z,10.52
2023-01-09T18:48:53.778Z,10.55
2023-01-09T18:51:21.567Z,14.50
2023-01-09T18:53:49.146Z,11.82
2023-01-09T18:56:16.343Z,12.70
2023-01-09T18:58:43.719Z,14.30
2023-01-09T19:01:11.124Z,10.25
2023-01-09T19:03:38.526Z,9.27
2023-01-09T19:06:06.210Z,7.82
2023-01-09T19:08:34.198Z,8.52
2023-01-09T19:11:01.808Z,9.07
2023-01-09T19:13:30.165Z,17.33
2023-01-09T19:15:58.124Z,12.70
2023-01-09T19:18:25.635Z,12.55
2023-01-09T19:20:53.484Z,13.38
2023-01-09T19:23:21.183Z,20.75
2023-01-09T19:25:48.500Z,16.25
2023-01-09T19:28:15.798Z,10.45
2023-01-09T19:30:43.098Z,10.68
2023-01-09T19:33:11.851Z,11.38
2023-01-09T19:35:39.649Z,13.18
2023-01-09T19:38:07.162Z,11.07
2023-01-09T19:40:34.471Z,14.85
2023-01-09T19:43:02.046Z,17.73
2023-01-09T19:45:29.480Z,14.68
2023-01-09T19:47:56.761Z,11.13
2023-01-09T19:50:24.105Z,9.27
2023-01-09T19:52:51.479Z,9.82
2023-01-09T19:55:18.792Z,11.43
2023-01-09T19:57:46.818Z,9.43
2023-01-09T20:00:15.096Z,12.02
2023-01-09T20:02:43.156Z,11.43
2023-01-09T20:05:10.767Z,13.85
2023-01-09T20:07:38.044Z,9.10
2023-01-09T20:10:05.626Z,10.15
2023-01-09T20:12:33.121Z,20.90
2023-01-09T20:15:00.449Z,10.80
2023-01-09T20:17:28.537Z,8.55
2023-01-09T20:19:56.175Z,6.93
2023-01-09T20:22:25.852Z,9.23
2023-01-09T20:24:53.204Z,12.48
2023-01-09T20:27:20.592Z,11.82
2023-01-09T20:29:48.421Z,14.80
2023-01-09T20:32:15.685Z,14.20
2023-01-09T20:34:43.927Z,11.48
2023-01-09T20:37:11.577Z,12.38
2023-01-09T20:39:38.921Z,11.35
2023-01-09T20:42:06.223Z,11.82
2023-01-09T20:44:33.494Z,9.23
2023-01-09T20:47:00.825Z,10.63
2023-01-09T20:49:28.121Z,6.60
2023-01-09T20:51:55.351Z,14.05
2023-01-09T20:54:23.025Z,10.02
2023-01-09T20:56:50.374Z,11.27
2023-01-09T20:59:20.922Z,11.40
2023-01-09T21:01:48.751Z,9.45
2023-01-09T21:04:17.799Z,13.60
2023-01-09T21:06:45.215Z,14.55
2023-01-09T21:09:12.484Z,8.15
2023-01-09T21:11:39.797Z,12.32
2023-01-09T21:14:07.192Z,9.57
2023-01-09T21:16:34.524Z,13.88
2023-01-09T21:19:01.951Z,12.27
2023-01-09T21:21:29.730Z,13.98
2023-01-09T21:23:58.129Z,16.15
2023-01-09T21:26:28.195Z,11.07
2023-01-09T21:28:56.375Z,9.77
2023-01-09T21:31:25.437Z,10.13
2023-01-09T21:33:54.490Z,8.32
2023-01-09T21:36:22.034Z,12.30
2023-01-09T21:38:52.023Z,11.40
2023-01-09T21:41:40.039Z,11.65
2023-01-09T21:44:26.268Z,11.48
2023-01-09T21:46:55.796Z,7.70
2023-01-09T21:49:25.462Z,20.38
2023-01-09T21:51:54.112Z,12.00
2023-01-09T21:54:23.234Z,8.80
2023-01-09T21:56:51.178Z,11.90
2023-01-09T21:59:18.658Z,12.45
2023-01-09T22:01:46.189Z,11.73
2023-01-09T22:04:14.561Z,13.57
2023-01-09T22:06:41.923Z,14.60
2023-01-09T22:09:10.056Z,17.38
2023-01-09T22:11:38.530Z,12.95
2023-01-09T22:14:06.144Z,12.05
2023-01-09T22:16:33.824Z,13.63
2023-01-09T22:19:01.190Z,10.50
2023-01-09T22:21:28.485Z,12.27
2023-01-09T22:23:55.797Z,15.20
2023-01-09T22:26:23.050Z,13.10
2023-01-09T22:28:50.538Z,12.70
2023-01-09T22:31:19.828Z,16.23
2023-01-09T22:33:51.321Z,13.15
2023-01-09T22:36:18.645Z,12.60
2023-01-09T22:38:46.481Z,14.60
2023-01-09T22:41:13.918Z,19.08
2023-01-09T22:43:41.263Z,8.32
2023-01-09T22:46:11.391Z,8.85
2023-01-09T22:48:39.273Z,12.57
2023-01-09T22:51:16.832Z,6.80
2023-01-09T22:53:44.207Z,7.75
2023-01-09T22:56:13.435Z,10.23
2023-01-09T22:58:40.866Z,10.38
2023-01-09T23:01:08.150Z,8.95
2023-01-09T23:03:35.401Z,13.48
2023-01-09T23:06:06.994Z,11.27
2023-01-09T23:08:34.665Z,14.55
2023-01-09T23:11:02.909Z,21.55
2023-01-09T23:13:30.210Z,9.73
2023-01-09T23:15:57.474Z,12.38
2023-01-09T23:18:24.905Z,13.45
2023-01-09T23:20:56.755Z,9.02
2023-01-09T23:23:24.716Z,11.18
2023-01-09T23:25:52.798Z,15.02
2023-01-09T23:28:20.526Z,10.40
2023-01-09T23:30:48.538Z,12.63
2023-01-09T23:33:21.107Z,16.13
2023-01-09T23:35:48.798Z,10.27
2023-01-09T23:38:16.142Z,20.90
2023-01-09T23:40:43.507Z,14.82
2023-01-09T23:43:15.411Z,14.00
2023-01-09T23:45:46.480Z,14.93
2023-01-09T23:48:15.023Z,11.93
2023-01-09T23:50:49.326Z,16.45
2023-01-09T23:53:16.700Z,15.15
2023-01-09T23:55:44.405Z,18.02
2023-01-09T23:58:11.975Z,14.48
